Terminal Aerodrome Forecast
Issued by NWS

Home | Current Version | Previous Version | Text Only | Print | Product List | Glossary Off
Versions: 1 2 3 4 5 6 7 8 9 10 11 12 13 14 15 16

045
FTUS43 KICT 231124
TAFCNU
TAF
KCNU 231124Z 2312/2412 33010KT P6SM VCSH SCT030 OVC090
      TEMPO 2312/2315 6SM -SHRA OVC030
     FM231500 33013G19KT P6SM BKN090
     FM231800 33015G22KT P6SM VCSH SCT040 BKN100
      TEMPO 2319/2323 BKN040
     FM240000 33009KT P6SM BKN050=

USA.gov is the U.S. government's official web portal to all federal, state and local government web resources and services.